createdAt,value
2023-08-17T00:02:30.587Z,7.43
2023-08-17T00:07:34.305Z,8.88
2023-08-17T00:12:37.950Z,10.43
2023-08-17T00:17:43.056Z,9.43
2023-08-17T00:22:46.838Z,7.38
2023-08-17T00:27:50.557Z,7.15
2023-08-17T00:32:56.037Z,7.22
2023-08-17T00:37:59.754Z,6.47
2023-08-17T00:43:03.494Z,8.40
2023-08-17T00:48:10.258Z,7.35
2023-08-17T00:53:14.783Z,7.15
2023-08-17T00:58:18.645Z,7.70
2023-08-17T01:03:24.728Z,7.32
2023-08-17T01:08:28.648Z,10.65
2023-08-17T01:13:37.585Z,8.82
2023-08-17T01:18:44.042Z,11.77
2023-08-17T01:23:52.220Z,17.55
2023-08-17T01:28:56.042Z,18.15
2023-08-17T01:34:05.485Z,11.93
2023-08-17T01:39:12.322Z,9.35
2023-08-17T01:44:16.283Z,8.40
2023-08-17T01:49:20.088Z,9.23
2023-08-17T01:54:26.057Z,8.63
2023-08-17T01:59:29.729Z,7.88
2023-08-17T02:04:33.523Z,9.05
2023-08-17T02:09:39.070Z,8.20
2023-08-17T02:14:42.925Z,9.43
2023-08-17T02:19:46.638Z,7.72
2023-08-17T02:24:51.628Z,7.57
2023-08-17T02:29:55.509Z,7.68
2023-08-17T02:34:59.212Z,8.73
2023-08-17T02:40:05.564Z,8.75
2023-08-17T02:45:10.611Z,11.00
2023-08-17T02:50:14.610Z,9.68
2023-08-17T02:55:19.751Z,9.77
2023-08-17T03:00:24.144Z,9.07
2023-08-17T03:10:55.677Z,9.60
2023-08-17T03:16:00.601Z,10.63
2023-08-17T03:21:04.757Z,10.38
2023-08-17T03:26:10.707Z,9.57
2023-08-17T03:31:14.556Z,10.30
2023-08-17T03:36:18.766Z,14.73
2023-08-17T03:41:25.697Z,17.17
2023-08-17T03:46:29.550Z,16.42
2023-08-17T03:51:33.630Z,15.98
2023-08-17T03:56:38.691Z,16.23
2023-08-17T04:01:42.564Z,12.60
2023-08-17T04:06:46.335Z,12.88
2023-08-17T04:11:51.441Z,12.32
2023-08-17T04:16:56.762Z,11.43
2023-08-17T04:22:00.654Z,11.10
2023-08-17T04:27:06.474Z,13.07
2023-08-17T04:32:10.182Z,24.45
2023-08-17T04:37:13.930Z,13.38
2023-08-17T04:42:20.941Z,12.93
2023-08-17T04:47:24.982Z,12.57
2023-08-17T04:52:29.539Z,19.83
2023-08-17T04:57:34.732Z,12.73
2023-08-17T05:02:39.071Z,16.05
2023-08-17T05:07:43.135Z,13.13
2023-08-17T05:12:48.789Z,11.50
2023-08-17T05:17:52.533Z,10.88
2023-08-17T05:22:56.446Z,11.68
2023-08-17T05:28:02.581Z,11.65
2023-08-17T05:33:06.946Z,23.38
2023-08-17T05:38:11.013Z,11.75
2023-08-17T05:43:16.243Z,14.13
2023-08-17T05:48:21.912Z,10.40
2023-08-17T05:53:25.627Z,12.73
2023-08-17T05:58:31.673Z,10.25
2023-08-17T06:03:35.536Z,16.88
2023-08-17T06:08:39.278Z,13.82
2023-08-17T06:13:44.567Z,14.85
2023-08-17T06:18:48.420Z,17.17
2023-08-17T06:23:52.152Z,15.68
2023-08-17T06:28:57.433Z,14.27
2023-08-17T06:34:01.357Z,14.23
2023-08-17T06:39:05.742Z,16.15
2023-08-17T06:44:10.856Z,19.15
2023-08-17T06:49:15.049Z,13.13
2023-08-17T06:54:18.906Z,13.90
2023-08-17T06:59:24.039Z,13.27
2023-08-17T07:04:27.945Z,17.50
2023-08-17T07:09:31.742Z,11.50
2023-08-17T07:14:36.927Z,16.27
2023-08-17T07:24:47.564Z,13.05
2023-08-17T07:29:52.846Z,18.45
2023-08-17T07:34:56.662Z,14.20
2023-08-17T07:40:01.506Z,14.27
2023-08-17T07:45:08.620Z,19.70
2023-08-17T07:50:12.656Z,19.77
2023-08-17T07:55:16.564Z,18.40
2023-08-17T08:00:21.874Z,19.33
2023-08-17T08:05:25.716Z,22.88
2023-08-17T08:10:30.411Z,19.50
2023-08-17T08:15:36.300Z,20.88
2023-08-17T08:20:40.546Z,21.35
2023-08-17T08:25:44.443Z,28.63
2023-08-17T08:30:49.772Z,24.42
2023-08-17T08:35:53.919Z,14.48
2023-08-17T08:40:57.866Z,12.27
2023-08-17T08:46:04.508Z,10.35
2023-08-17T08:51:10.933Z,13.02
2023-08-17T08:56:15.375Z,9.77
2023-08-17T09:01:21.482Z,15.38
2023-08-17T09:06:27.918Z,8.40
2023-08-17T09:11:32.383Z,15.18
2023-08-17T09:16:37.576Z,14.82
2023-08-17T09:21:41.658Z,10.18
2023-08-17T09:26:45.455Z,18.02
2023-08-17T09:31:51.248Z,24.15
2023-08-17T09:36:54.896Z,13.02
2023-08-17T09:41:58.634Z,14.18
2023-08-17T09:47:03.793Z,12.70
2023-08-17T09:52:07.797Z,7.35
2023-08-17T09:57:12.158Z,10.38
2023-08-17T10:02:21.408Z,14.38
2023-08-17T10:07:34.136Z,18.80
2023-08-17T10:12:40.069Z,10.18
2023-08-17T10:17:48.965Z,10.65
2023-08-17T10:23:00.761Z,21.23
2023-08-17T10:28:05.562Z,7.30
2023-08-17T10:33:11.625Z,13.90
2023-08-17T10:38:17.767Z,7.65
2023-08-17T10:43:23.538Z,9.23
2023-08-17T10:48:30.781Z,6.97
2023-08-17T10:53:40.221Z,13.95
2023-08-17T10:58:47.157Z,6.80
2023-08-17T11:04:12.536Z,10.95
2023-08-17T11:09:19.956Z,11.25
2023-08-17T11:14:23.753Z,10.48
2023-08-17T11:19:28.844Z,8.93
2023-08-17T11:24:32.617Z,7.82
2023-08-17T11:29:36.336Z,8.40
2023-08-17T11:34:42.984Z,8.48
2023-08-17T11:39:46.876Z,12.48
2023-08-17T11:44:51.284Z,11.18
2023-08-17T11:50:14.565Z,18.15
2023-08-17T11:55:24.109Z,10.00
2023-08-17T12:00:27.949Z,11.75
2023-08-17T12:05:34.206Z,11.00
2023-08-17T12:10:39.574Z,15.95
2023-08-17T12:15:43.544Z,6.57
2023-08-17T12:20:54.941Z,10.25
2023-08-17T12:25:59.710Z,9.63
2023-08-17T12:31:04.975Z,10.77
2023-08-17T12:36:10.721Z,10.18
2023-08-17T12:41:14.398Z,7.13
2023-08-17T12:46:18.223Z,6.55
2023-08-17T12:51:23.287Z,9.65
2023-08-17T12:56:27.097Z,7.80
2023-08-17T13:01:30.984Z,9.25
2023-08-17T13:06:47.524Z,8.43
2023-08-17T13:11:54.114Z,8.82
2023-08-17T13:16:57.892Z,15.05
2023-08-17T13:22:03.924Z,11.60
2023-08-17T13:27:08.533Z,9.10
2023-08-17T13:32:12.321Z,10.98
2023-08-17T13:37:17.492Z,4.65
2023-08-17T13:42:21.201Z,6.05
2023-08-17T13:47:24.913Z,7.00
2023-08-17T13:52:30.201Z,5.85
2023-08-17T13:57:34.050Z,5.50
2023-08-17T14:02:37.741Z,4.97
2023-08-17T14:07:43.625Z,6.88
2023-08-17T14:12:47.341Z,4.63
2023-08-17T14:17:51.080Z,8.10
2023-08-17T14:22:56.345Z,4.40
2023-08-17T14:28:00.935Z,7.88
2023-08-17T14:33:04.899Z,4.57
2023-08-17T14:38:10.380Z,7.70
2023-08-17T14:43:15.260Z,6.20
2023-08-17T14:48:22.686Z,6.35
2023-08-17T14:53:28.037Z,6.93
2023-08-17T14:58:31.877Z,6.43
2023-08-17T15:03:35.641Z,8.35
2023-08-17T15:08:40.803Z,11.32
2023-08-17T15:13:45.539Z,6.72
2023-08-17T15:18:49.235Z,11.35
2023-08-17T15:23:54.414Z,8.90
2023-08-17T15:28:58.164Z,6.32
2023-08-17T15:34:01.847Z,7.82
2023-08-17T15:39:07.301Z,7.43
2023-08-17T15:44:11.036Z,6.47
2023-08-17T15:49:14.786Z,5.82
2023-08-17T15:54:33.476Z,8.52
2023-08-17T15:59:40.395Z,6.05
2023-08-17T16:04:44.103Z,9.50
2023-08-17T16:09:49.121Z,4.47
2023-08-17T16:14:52.929Z,7.70
2023-08-17T16:19:56.754Z,8.00
2023-08-17T16:25:01.836Z,7.13
2023-08-17T16:30:06.616Z,11.07
2023-08-17T16:35:10.594Z,6.80
2023-08-17T16:40:28.138Z,7.22
2023-08-17T16:45:39.838Z,4.50
2023-08-17T16:50:43.700Z,8.43
2023-08-17T16:55:54.816Z,11.10
2023-08-17T17:00:59.380Z,4.93
2023-08-17T17:06:03.035Z,4.32
2023-08-17T17:11:09.608Z,10.35
2023-08-17T17:16:13.426Z,4.82
2023-08-17T17:21:17.095Z,6.47
2023-08-17T17:26:22.147Z,5.65
2023-08-17T17:31:25.929Z,6.47
2023-08-17T17:36:29.969Z,6.07
2023-08-17T17:41:35.066Z,7.65
2023-08-17T17:46:38.832Z,5.85
2023-08-17T17:51:42.624Z,5.50
2023-08-17T17:56:48.495Z,6.63
2023-08-17T18:01:52.182Z,6.20
2023-08-17T18:06:55.900Z,7.22
2023-08-17T18:12:01.015Z,5.72
2023-08-17T18:17:04.868Z,6.40
2023-08-17T18:22:09.437Z,5.88
2023-08-17T18:27:14.665Z,6.22
2023-08-17T18:32:18.490Z,5.20
2023-08-17T18:37:22.180Z,6.53
2023-08-17T18:42:28.899Z,8.73
2023-08-17T18:47:32.671Z,6.43
2023-08-17T18:52:36.401Z,8.45
2023-08-17T18:57:42.488Z,5.93
2023-08-17T19:02:46.334Z,7.18
2023-08-17T19:07:50.319Z,7.32
2023-08-17T19:12:55.491Z,6.82
2023-08-17T19:17:59.141Z,6.95
2023-08-17T19:23:03.836Z,8.07
2023-08-17T19:28:09.372Z,14.13
2023-08-17T19:33:13.111Z,8.25
2023-08-17T19:38:16.857Z,11.07
2023-08-17T19:43:21.926Z,8.48
2023-08-17T19:48:25.619Z,10.38
2023-08-17T19:53:29.227Z,9.15
2023-08-17T19:58:34.370Z,10.35
2023-08-17T20:03:38.466Z,11.32
2023-08-17T20:08:42.405Z,9.93
2023-08-17T20:13:47.628Z,8.70
2023-08-17T20:18:51.431Z,7.03
2023-08-17T20:23:55.161Z,7.70
2023-08-17T20:29:00.213Z,7.25
2023-08-17T20:34:03.833Z,18.13
2023-08-17T20:39:09.356Z,15.45
2023-08-17T20:44:15.724Z,13.05
2023-08-17T20:49:20.221Z,10.07
2023-08-17T20:54:23.824Z,6.65
2023-08-17T20:59:29.021Z,7.93
2023-08-17T21:04:32.729Z,5.82
2023-08-17T21:09:36.465Z,6.85
2023-08-17T21:14:41.382Z,6.18
2023-08-17T21:19:45.145Z,11.43
2023-08-17T21:24:48.939Z,5.93
2023-08-17T21:29:53.969Z,7.50
2023-08-17T21:34:57.590Z,5.53
2023-08-17T21:40:01.481Z,5.22
2023-08-17T21:45:07.864Z,5.50
2023-08-17T21:50:12.468Z,5.50
2023-08-17T21:55:16.186Z,5.05
2023-08-17T22:00:21.299Z,9.93
2023-08-17T22:05:24.941Z,6.10
2023-08-17T22:10:28.984Z,6.03
2023-08-17T22:15:34.114Z,6.00
2023-08-17T22:20:40.868Z,8.13
2023-08-17T22:25:44.591Z,8.27
2023-08-17T22:30:49.811Z,6.35
2023-08-17T22:35:53.473Z,6.90
2023-08-17T22:40:57.181Z,6.57
2023-08-17T22:46:04.808Z,6.72
2023-08-17T22:51:09.068Z,6.75
2023-08-17T22:56:12.718Z,7.40
2023-08-17T23:01:18.034Z,7.32
2023-08-17T23:06:21.704Z,7.03
2023-08-17T23:11:25.277Z,7.38
2023-08-17T23:16:30.544Z,6.75
2023-08-17T23:21:34.405Z,7.10
2023-08-17T23:26:38.034Z,7.72
2023-08-17T23:31:43.136Z,9.98
2023-08-17T23:36:46.867Z,7.75
2023-08-17T23:41:50.499Z,8.35
2023-08-17T23:46:55.476Z,8.95
2023-08-17T23:51:59.187Z,8.80
2023-08-17T23:57:02.979Z,9.95
